sensor_id;sensor_type;location;lat;lon;timestamp;P1;durP1;ratioP1;P2;durP2;ratioP2
25319;SDS011;13256;49.012;8.610;2022-12-31T00:00:49;0.32;;;0.30;;
25319;SDS011;13256;49.012;8.610;2022-12-31T00:03:18;0.28;;;0.28;;
25319;SDS011;13256;49.012;8.610;2022-12-31T00:10:57;0.35;;;0.30;;
25319;SDS011;13256;49.012;8.610;2022-12-31T00:13:33;0.20;;;0.20;;
25319;SDS011;13256;49.012;8.610;2022-12-31T00:19:25;5.05;;;0.30;;
25319;SDS011;13256;49.012;8.610;2022-12-31T00:21:52;0.30;;;0.30;;
25319;SDS011;13256;49.012;8.610;2022-12-31T00:24:19;1.63;;;0.30;;
25319;SDS011;13256;49.012;8.610;2022-12-31T00:26:46;0.40;;;0.40;;
25319;SDS011;13256;49.012;8.610;2022-12-31T00:29:13;0.30;;;0.30;;
25319;SDS011;13256;49.012;8.610;2022-12-31T00:31:43;0.30;;;0.30;;
25319;SDS011;13256;49.012;8.610;2022-12-31T00:34:11;0.25;;;0.25;;
25319;SDS011;13256;49.012;8.610;2022-12-31T00:36:42;0.30;;;0.20;;
25319;SDS011;13256;49.012;8.610;2022-12-31T00:39:11;0.30;;;0.30;;
25319;SDS011;13256;49.012;8.610;2022-12-31T00:41:43;2.42;;;0.30;;
25319;SDS011;13256;49.012;8.610;2022-12-31T00:46:53;0.40;;;0.40;;
25319;SDS011;13256;49.012;8.610;2022-12-31T00:52:21;0.45;;;0.45;;
25319;SDS011;13256;49.012;8.610;2022-12-31T00:54:48;0.43;;;0.30;;
25319;SDS011;13256;49.012;8.610;2022-12-31T00:57:18;0.38;;;0.38;;
25319;SDS011;13256;49.012;8.610;2022-12-31T00:59:45;0.43;;;0.43;;
25319;SDS011;13256;49.012;8.610;2022-12-31T01:04:52;0.90;;;0.45;;
25319;SDS011;13256;49.012;8.610;2022-12-31T01:07:19;0.40;;;0.40;;
25319;SDS011;13256;49.012;8.610;2022-12-31T01:09:46;0.38;;;0.38;;
25319;SDS011;13256;49.012;8.610;2022-12-31T01:12:13;0.30;;;0.30;;
25319;SDS011;13256;49.012;8.610;2022-12-31T01:14:40;0.30;;;0.30;;
25319;SDS011;13256;49.012;8.610;2022-12-31T01:17:06;0.43;;;0.38;;
25319;SDS011;13256;49.012;8.610;2022-12-31T01:19:33;2.28;;;0.40;;
25319;SDS011;13256;49.012;8.610;2022-12-31T01:22:00;0.70;;;0.60;;
25319;SDS011;13256;49.012;8.610;2022-12-31T01:24:31;0.90;;;0.50;;
25319;SDS011;13256;49.012;8.610;2022-12-31T01:26:57;0.55;;;0.55;;
25319;SDS011;13256;49.012;8.610;2022-12-31T01:29:30;2.15;;;0.88;;
25319;SDS011;13256;49.012;8.610;2022-12-31T01:31:56;1.05;;;0.52;;
25319;SDS011;13256;49.012;8.610;2022-12-31T01:34:23;0.35;;;0.35;;
25319;SDS011;13256;49.012;8.610;2022-12-31T01:36:50;0.45;;;0.45;;
25319;SDS011;13256;49.012;8.610;2022-12-31T01:39:19;3.53;;;1.05;;
25319;SDS011;13256;49.012;8.610;2022-12-31T01:41:46;1.00;;;0.47;;
25319;SDS011;13256;49.012;8.610;2022-12-31T01:46:55;0.80;;;0.40;;
25319;SDS011;13256;49.012;8.610;2022-12-31T01:52:24;0.68;;;0.40;;
25319;SDS011;13256;49.012;8.610;2022-12-31T01:55:18;0.40;;;0.40;;
25319;SDS011;13256;49.012;8.610;2022-12-31T02:00:56;0.85;;;0.20;;
25319;SDS011;13256;49.012;8.610;2022-12-31T02:03:24;0.43;;;0.40;;
25319;SDS011;13256;49.012;8.610;2022-12-31T02:06:00;0.73;;;0.40;;
25319;SDS011;13256;49.012;8.610;2022-12-31T02:08:45;0.52;;;0.40;;
25319;SDS011;13256;49.012;8.610;2022-12-31T02:11:30;0.50;;;0.50;;
25319;SDS011;13256;49.012;8.610;2022-12-31T02:14:13;1.92;;;0.43;;
25319;SDS011;13256;49.012;8.610;2022-12-31T02:19:50;1.95;;;0.50;;
25319;SDS011;13256;49.012;8.610;2022-12-31T02:31:49;0.57;;;0.50;;
25319;SDS011;13256;49.012;8.610;2022-12-31T02:34:27;3.60;;;0.70;;
25319;SDS011;13256;49.012;8.610;2022-12-31T02:36:59;0.60;;;0.40;;
25319;SDS011;13256;49.012;8.610;2022-12-31T02:39:31;2.15;;;0.60;;
25319;SDS011;13256;49.012;8.610;2022-12-31T02:42:02;1.85;;;0.40;;
25319;SDS011;13256;49.012;8.610;2022-12-31T02:44:33;0.38;;;0.38;;
25319;SDS011;13256;49.012;8.610;2022-12-31T02:49:58;0.60;;;0.60;;
25319;SDS011;13256;49.012;8.610;2022-12-31T02:58:15;0.75;;;0.60;;
25319;SDS011;13256;49.012;8.610;2022-12-31T03:01:09;0.57;;;0.50;;
25319;SDS011;13256;49.012;8.610;2022-12-31T03:03:55;0.30;;;0.30;;
25319;SDS011;13256;49.012;8.610;2022-12-31T03:06:50;0.52;;;0.30;;
25319;SDS011;13256;49.012;8.610;2022-12-31T03:09:18;1.27;;;0.50;;
25319;SDS011;13256;49.012;8.610;2022-12-31T03:11:45;0.77;;;0.65;;
25319;SDS011;13256;49.012;8.610;2022-12-31T03:14:31;0.57;;;0.47;;
25319;SDS011;13256;49.012;8.610;2022-12-31T03:17:22;0.32;;;0.32;;
25319;SDS011;13256;49.012;8.610;2022-12-31T03:19:49;0.60;;;0.50;;
25319;SDS011;13256;49.012;8.610;2022-12-31T03:23:06;1.42;;;0.40;;
25319;SDS011;13256;49.012;8.610;2022-12-31T03:28:30;0.85;;;0.50;;
25319;SDS011;13256;49.012;8.610;2022-12-31T03:30:58;0.95;;;0.45;;
25319;SDS011;13256;49.012;8.610;2022-12-31T03:33:30;0.40;;;0.40;;
25319;SDS011;13256;49.012;8.610;2022-12-31T03:36:01;0.45;;;0.45;;
25319;SDS011;13256;49.012;8.610;2022-12-31T03:41:29;0.32;;;0.32;;
25319;SDS011;13256;49.012;8.610;2022-12-31T03:43:55;1.27;;;0.40;;
25319;SDS011;13256;49.012;8.610;2022-12-31T03:46:26;0.95;;;0.30;;
25319;SDS011;13256;49.012;8.610;2022-12-31T03:48:56;1.38;;;0.50;;
25319;SDS011;13256;49.012;8.610;2022-12-31T03:51:24;0.68;;;0.45;;
25319;SDS011;13256;49.012;8.610;2022-12-31T03:53:51;0.77;;;0.47;;
25319;SDS011;13256;49.012;8.610;2022-12-31T03:56:19;0.40;;;0.40;;
25319;SDS011;13256;49.012;8.610;2022-12-31T03:58:46;0.38;;;0.38;;
25319;SDS011;13256;49.012;8.610;2022-12-31T04:01:12;1.10;;;0.50;;
25319;SDS011;13256;49.012;8.610;2022-12-31T04:03:39;1.20;;;0.40;;
25319;SDS011;13256;49.012;8.610;2022-12-31T04:06:09;0.32;;;0.32;;
25319;SDS011;13256;49.012;8.610;2022-12-31T04:08:36;0.52;;;0.47;;
25319;SDS011;13256;49.012;8.610;2022-12-31T04:11:09;0.45;;;0.30;;
25319;SDS011;13256;49.012;8.610;2022-12-31T04:13:49;0.28;;;0.28;;
25319;SDS011;13256;49.012;8.610;2022-12-31T04:16:18;0.85;;;0.30;;
25319;SDS011;13256;49.012;8.610;2022-12-31T04:18:48;0.25;;;0.25;;
25319;SDS011;13256;49.012;8.610;2022-12-31T04:21:18;0.30;;;0.30;;
25319;SDS011;13256;49.012;8.610;2022-12-31T04:23:45;1.50;;;0.30;;
25319;SDS011;13256;49.012;8.610;2022-12-31T04:26:15;0.60;;;0.40;;
25319;SDS011;13256;49.012;8.610;2022-12-31T04:28:42;1.25;;;0.40;;
25319;SDS011;13256;49.012;8.610;2022-12-31T04:31:09;0.30;;;0.30;;
25319;SDS011;13256;49.012;8.610;2022-12-31T04:36:17;1.20;;;0.30;;
25319;SDS011;13256;49.012;8.610;2022-12-31T04:38:44;0.55;;;0.52;;
25319;SDS011;13256;49.012;8.610;2022-12-31T04:41:15;0.40;;;0.35;;
25319;SDS011;13256;49.012;8.610;2022-12-31T04:43:50;1.75;;;0.50;;
25319;SDS011;13256;49.012;8.610;2022-12-31T04:46:23;0.40;;;0.40;;
25319;SDS011;13256;49.012;8.610;2022-12-31T04:48:55;0.30;;;0.30;;
25319;SDS011;13256;49.012;8.610;2022-12-31T04:51:23;0.75;;;0.30;;
25319;SDS011;13256;49.012;8.610;2022-12-31T04:53:51;0.20;;;0.20;;
25319;SDS011;13256;49.012;8.610;2022-12-31T04:56:19;0.47;;;0.47;;
25319;SDS011;13256;49.012;8.610;2022-12-31T04:58:47;1.83;;;0.22;;
25319;SDS011;13256;49.012;8.610;2022-12-31T05:01:14;0.38;;;0.30;;
25319;SDS011;13256;49.012;8.610;2022-12-31T05:04:07;0.30;;;0.30;;
25319;SDS011;13256;49.012;8.610;2022-12-31T05:06:58;0.40;;;0.30;;
25319;SDS011;13256;49.012;8.610;2022-12-31T05:09:24;0.65;;;0.38;;
25319;SDS011;13256;49.012;8.610;2022-12-31T05:14:42;0.80;;;0.30;;
25319;SDS011;13256;49.012;8.610;2022-12-31T05:20:09;0.68;;;0.52;;
25319;SDS011;13256;49.012;8.610;2022-12-31T05:22:47;0.30;;;0.30;;
25319;SDS011;13256;49.012;8.610;2022-12-31T05:25:13;0.85;;;0.82;;
25319;SDS011;13256;49.012;8.610;2022-12-31T05:27:40;1.00;;;0.90;;
25319;SDS011;13256;49.012;8.610;2022-12-31T05:33:03;0.45;;;0.38;;
25319;SDS011;13256;49.012;8.610;2022-12-31T05:36:01;0.73;;;0.50;;
25319;SDS011;13256;49.012;8.610;2022-12-31T05:38:32;0.73;;;0.30;;
25319;SDS011;13256;49.012;8.610;2022-12-31T05:41:03;0.30;;;0.30;;
25319;SDS011;13256;49.012;8.610;2022-12-31T05:43:40;1.75;;;0.30;;
25319;SDS011;13256;49.012;8.610;2022-12-31T05:46:09;1.25;;;0.85;;
25319;SDS011;13256;49.012;8.610;2022-12-31T05:48:57;1.02;;;0.40;;
25319;SDS011;13256;49.012;8.610;2022-12-31T05:51:40;0.63;;;0.43;;
25319;SDS011;13256;49.012;8.610;2022-12-31T05:54:08;0.40;;;0.40;;
25319;SDS011;13256;49.012;8.610;2022-12-31T05:56:48;0.60;;;0.32;;
25319;SDS011;13256;49.012;8.610;2022-12-31T05:59:18;0.30;;;0.30;;
25319;SDS011;13256;49.012;8.610;2022-12-31T06:01:49;0.28;;;0.28;;
25319;SDS011;13256;49.012;8.610;2022-12-31T06:04:20;1.15;;;0.60;;
25319;SDS011;13256;49.012;8.610;2022-12-31T06:06:49;0.55;;;0.50;;
25319;SDS011;13256;49.012;8.610;2022-12-31T06:09:27;1.35;;;0.68;;
25319;SDS011;13256;49.012;8.610;2022-12-31T06:11:59;1.95;;;0.63;;
25319;SDS011;13256;49.012;8.610;2022-12-31T06:14:28;0.43;;;0.40;;
25319;SDS011;13256;49.012;8.610;2022-12-31T06:17:04;1.90;;;1.13;;
25319;SDS011;13256;49.012;8.610;2022-12-31T06:19:35;0.40;;;0.40;;
25319;SDS011;13256;49.012;8.610;2022-12-31T06:22:16;0.45;;;0.45;;
25319;SDS011;13256;49.012;8.610;2022-12-31T06:28:00;0.90;;;0.50;;
25319;SDS011;13256;49.012;8.610;2022-12-31T06:30:30;1.40;;;0.60;;
25319;SDS011;13256;49.012;8.610;2022-12-31T06:32:58;0.65;;;0.40;;
25319;SDS011;13256;49.012;8.610;2022-12-31T06:35:27;0.30;;;0.30;;
25319;SDS011;13256;49.012;8.610;2022-12-31T06:37:57;0.50;;;0.50;;
25319;SDS011;13256;49.012;8.610;2022-12-31T06:40:29;1.30;;;0.40;;
25319;SDS011;13256;49.012;8.610;2022-12-31T06:43:08;0.50;;;0.50;;
25319;SDS011;13256;49.012;8.610;2022-12-31T06:45:35;0.73;;;0.60;;
25319;SDS011;13256;49.012;8.610;2022-12-31T06:48:08;0.57;;;0.50;;
25319;SDS011;13256;49.012;8.610;2022-12-31T06:50:39;0.75;;;0.63;;
25319;SDS011;13256;49.012;8.610;2022-12-31T06:53:08;4.97;;;1.13;;
25319;SDS011;13256;49.012;8.610;2022-12-31T07:10:51;0.80;;;0.47;;
25319;SDS011;13256;49.012;8.610;2022-12-31T07:16:54;0.50;;;0.50;;
25319;SDS011;13256;49.012;8.610;2022-12-31T07:20:00;0.45;;;0.45;;
25319;SDS011;13256;49.012;8.610;2022-12-31T07:22:44;0.60;;;0.60;;
25319;SDS011;13256;49.012;8.610;2022-12-31T07:25:12;3.08;;;1.15;;
25319;SDS011;13256;49.012;8.610;2022-12-31T07:33:27;1.33;;;1.17;;
25319;SDS011;13256;49.012;8.610;2022-12-31T07:39:15;0.60;;;0.50;;
25319;SDS011;13256;49.012;8.610;2022-12-31T07:48:22;0.40;;;0.40;;
25319;SDS011;13256;49.012;8.610;2022-12-31T07:51:21;1.98;;;0.50;;
25319;SDS011;13256;49.012;8.610;2022-12-31T07:56:52;0.95;;;0.60;;
25319;SDS011;13256;49.012;8.610;2022-12-31T08:08:15;1.88;;;0.52;;
25319;SDS011;13256;49.012;8.610;2022-12-31T08:13:34;0.73;;;0.57;;
25319;SDS011;13256;49.012;8.610;2022-12-31T08:16:11;0.65;;;0.50;;
25319;SDS011;13256;49.012;8.610;2022-12-31T08:18:39;0.88;;;0.55;;
25319;SDS011;13256;49.012;8.610;2022-12-31T08:29:48;0.50;;;0.50;;
25319;SDS011;13256;49.012;8.610;2022-12-31T08:32:56;0.82;;;0.75;;
25319;SDS011;13256;49.012;8.610;2022-12-31T08:41:17;1.50;;;0.77;;
25319;SDS011;13256;49.012;8.610;2022-12-31T08:44:09;0.77;;;0.57;;
25319;SDS011;13256;49.012;8.610;2022-12-31T08:50:18;1.33;;;0.68;;
25319;SDS011;13256;49.012;8.610;2022-12-31T08:52:46;0.65;;;0.40;;
25319;SDS011;13256;49.012;8.610;2022-12-31T09:01:08;2.00;;;0.90;;
25319;SDS011;13256;49.012;8.610;2022-12-31T09:03:44;0.60;;;0.50;;
25319;SDS011;13256;49.012;8.610;2022-12-31T09:06:41;4.82;;;1.95;;
25319;SDS011;13256;49.012;8.610;2022-12-31T09:09:43;4.03;;;1.70;;
25319;SDS011;13256;49.012;8.610;2022-12-31T09:12:29;1.55;;;1.08;;
25319;SDS011;13256;49.012;8.610;2022-12-31T09:14:59;3.72;;;1.73;;
25319;SDS011;13256;49.012;8.610;2022-12-31T09:17:44;0.95;;;0.63;;
25319;SDS011;13256;49.012;8.610;2022-12-31T09:20:22;2.22;;;0.70;;
25319;SDS011;13256;49.012;8.610;2022-12-31T09:23:15;0.93;;;0.60;;
25319;SDS011;13256;49.012;8.610;2022-12-31T09:25:46;1.05;;;0.70;;
25319;SDS011;13256;49.012;8.610;2022-12-31T09:28:35;0.68;;;0.50;;
25319;SDS011;13256;49.012;8.610;2022-12-31T09:37:05;0.73;;;0.70;;
25319;SDS011;13256;49.012;8.610;2022-12-31T09:39:43;2.67;;;0.60;;
25319;SDS011;13256;49.012;8.610;2022-12-31T09:48:42;0.60;;;0.40;;
25319;SDS011;13256;49.012;8.610;2022-12-31T09:51:29;1.35;;;0.60;;
25319;SDS011;13256;49.012;8.610;2022-12-31T09:59:45;3.67;;;0.80;;
25319;SDS011;13256;49.012;8.610;2022-12-31T10:08:45;0.88;;;0.55;;
25319;SDS011;13256;49.012;8.610;2022-12-31T10:15:03;0.47;;;0.47;;
25319;SDS011;13256;49.012;8.610;2022-12-31T10:23:39;1.08;;;0.60;;
25319;SDS011;13256;49.012;8.610;2022-12-31T10:29:23;0.50;;;0.50;;
25319;SDS011;13256;49.012;8.610;2022-12-31T10:38:13;0.57;;;0.43;;
25319;SDS011;13256;49.012;8.610;2022-12-31T10:46:49;0.43;;;0.40;;
25319;SDS011;13256;49.012;8.610;2022-12-31T10:59:38;0.90;;;0.60;;
25319;SDS011;13256;49.012;8.610;2022-12-31T11:22:19;1.45;;;0.60;;
25319;SDS011;13256;49.012;8.610;2022-12-31T11:53:20;1.27;;;0.63;;
25319;SDS011;13256;49.012;8.610;2022-12-31T11:59:19;1.33;;;0.52;;
25319;SDS011;13256;49.012;8.610;2022-12-31T12:01:53;0.70;;;0.40;;
25319;SDS011;13256;49.012;8.610;2022-12-31T12:04:33;0.40;;;0.40;;
25319;SDS011;13256;49.012;8.610;2022-12-31T12:07:15;0.90;;;0.40;;
25319;SDS011;13256;49.012;8.610;2022-12-31T12:09:48;0.40;;;0.40;;
25319;SDS011;13256;49.012;8.610;2022-12-31T12:12:39;0.47;;;0.30;;
25319;SDS011;13256;49.012;8.610;2022-12-31T12:15:26;0.38;;;0.30;;
25319;SDS011;13256;49.012;8.610;2022-12-31T12:21:05;1.55;;;0.30;;
25319;SDS011;13256;49.012;8.610;2022-12-31T12:27:27;0.73;;;0.40;;
25319;SDS011;13256;49.012;8.610;2022-12-31T12:33:49;1.92;;;0.47;;
25319;SDS011;13256;49.012;8.610;2022-12-31T12:43:00;1.08;;;0.60;;
25319;SDS011;13256;49.012;8.610;2022-12-31T12:48:47;0.47;;;0.20;;
25319;SDS011;13256;49.012;8.610;2022-12-31T12:53:14;1.77;;;0.40;;
25319;SDS011;13256;49.012;8.610;2022-12-31T13:07:55;0.75;;;0.50;;
25319;SDS011;13256;49.012;8.610;2022-12-31T13:10:46;1.27;;;0.50;;
25319;SDS011;13256;49.012;8.610;2022-12-31T13:27:19;0.30;;;0.30;;
25319;SDS011;13256;49.012;8.610;2022-12-31T13:29:32;0.40;;;0.40;;
25319;SDS011;13256;49.012;8.610;2022-12-31T13:32:01;0.50;;;0.50;;
25319;SDS011;13256;49.012;8.610;2022-12-31T13:34:32;0.50;;;0.40;;
25319;SDS011;13256;49.012;8.610;2022-12-31T13:37:06;3.75;;;1.70;;
25319;SDS011;13256;49.012;8.610;2022-12-31T13:43:49;0.60;;;0.52;;
25319;SDS011;13256;49.012;8.610;2022-12-31T13:52:53;0.98;;;0.40;;
25319;SDS011;13256;49.012;8.610;2022-12-31T13:55:30;1.20;;;0.50;;
25319;SDS011;13256;49.012;8.610;2022-12-31T14:04:43;0.40;;;0.40;;
25319;SDS011;13256;49.012;8.610;2022-12-31T14:08:10;0.65;;;0.40;;
25319;SDS011;13256;49.012;8.610;2022-12-31T14:28:39;0.93;;;0.47;;
25319;SDS011;13256;49.012;8.610;2022-12-31T14:46:51;0.85;;;0.77;;
25319;SDS011;13256;49.012;8.610;2022-12-31T14:49:45;2.78;;;1.33;;
25319;SDS011;13256;49.012;8.610;2022-12-31T14:52:49;0.80;;;0.50;;
25319;SDS011;13256;49.012;8.610;2022-12-31T14:55:34;0.52;;;0.50;;
25319;SDS011;13256;49.012;8.610;2022-12-31T14:58:18;0.50;;;0.50;;
25319;SDS011;13256;49.012;8.610;2022-12-31T15:01:43;0.32;;;0.32;;
25319;SDS011;13256;49.012;8.610;2022-12-31T15:04:13;1.02;;;0.70;;
25319;SDS011;13256;49.012;8.610;2022-12-31T15:07:35;1.10;;;0.75;;
25319;SDS011;13256;49.012;8.610;2022-12-31T15:10:21;5.50;;;2.10;;
25319;SDS011;13256;49.012;8.610;2022-12-31T15:20:35;2.65;;;1.33;;
25319;SDS011;13256;49.012;8.610;2022-12-31T15:23:30;0.75;;;0.68;;
25319;SDS011;13256;49.012;8.610;2022-12-31T15:38:42;1.30;;;0.70;;
25319;SDS011;13256;49.012;8.610;2022-12-31T15:41:34;2.38;;;0.90;;
25319;SDS011;13256;49.012;8.610;2022-12-31T15:45:38;1.40;;;0.70;;
25319;SDS011;13256;49.012;8.610;2022-12-31T15:48:17;0.70;;;0.70;;
25319;SDS011;13256;49.012;8.610;2022-12-31T15:56:48;0.70;;;0.68;;
25319;SDS011;13256;49.012;8.610;2022-12-31T15:59:18;1.42;;;0.70;;
25319;SDS011;13256;49.012;8.610;2022-12-31T16:04:56;0.55;;;0.50;;
25319;SDS011;13256;49.012;8.610;2022-12-31T16:07:25;2.22;;;0.90;;
25319;SDS011;13256;49.012;8.610;2022-12-31T16:09:55;1.38;;;1.23;;
25319;SDS011;13256;49.012;8.610;2022-12-31T16:12:29;1.25;;;1.10;;
25319;SDS011;13256;49.012;8.610;2022-12-31T16:15:16;3.15;;;2.25;;
25319;SDS011;13256;49.012;8.610;2022-12-31T16:18:05;2.17;;;1.30;;
25319;SDS011;13256;49.012;8.610;2022-12-31T16:23:42;1.00;;;0.90;;
25319;SDS011;13256;49.012;8.610;2022-12-31T16:26:32;1.02;;;0.80;;
25319;SDS011;13256;49.012;8.610;2022-12-31T16:29:15;1.73;;;1.02;;
25319;SDS011;13256;49.012;8.610;2022-12-31T16:31:50;1.95;;;1.58;;
25319;SDS011;13256;49.012;8.610;2022-12-31T16:34:20;5.43;;;2.30;;
25319;SDS011;13256;49.012;8.610;2022-12-31T16:37:03;12.20;;;6.28;;
25319;SDS011;13256;49.012;8.610;2022-12-31T16:48:26;6.82;;;3.17;;
25319;SDS011;13256;49.012;8.610;2022-12-31T16:50:58;4.68;;;2.17;;
25319;SDS011;13256;49.012;8.610;2022-12-31T16:53:26;2.60;;;1.40;;
25319;SDS011;13256;49.012;8.610;2022-12-31T16:59:16;1.25;;;1.15;;
25319;SDS011;13256;49.012;8.610;2022-12-31T17:01:56;2.53;;;1.25;;
25319;SDS011;13256;49.012;8.610;2022-12-31T17:04:26;4.32;;;1.67;;
25319;SDS011;13256;49.012;8.610;2022-12-31T17:12:52;4.95;;;2.00;;
25319;SDS011;13256;49.012;8.610;2022-12-31T17:16:34;10.57;;;3.42;;
25319;SDS011;13256;49.012;8.610;2022-12-31T17:19:57;18.38;;;6.65;;
25319;SDS011;13256;49.012;8.610;2022-12-31T17:22:41;17.92;;;5.88;;
25319;SDS011;13256;49.012;8.610;2022-12-31T17:28:22;8.38;;;3.05;;
25319;SDS011;13256;49.012;8.610;2022-12-31T17:30:59;4.85;;;2.22;;
25319;SDS011;13256;49.012;8.610;2022-12-31T17:33:31;4.30;;;1.98;;
25319;SDS011;13256;49.012;8.610;2022-12-31T17:38:41;2.58;;;1.27;;
25319;SDS011;13256;49.012;8.610;2022-12-31T17:41:26;1.08;;;0.80;;
25319;SDS011;13256;49.012;8.610;2022-12-31T17:44:11;1.42;;;0.90;;
25319;SDS011;13256;49.012;8.610;2022-12-31T17:46:49;2.53;;;1.45;;
25319;SDS011;13256;49.012;8.610;2022-12-31T17:49:21;2.10;;;1.38;;
25319;SDS011;13256;49.012;8.610;2022-12-31T17:52:00;3.55;;;1.55;;
25319;SDS011;13256;49.012;8.610;2022-12-31T17:54:28;2.85;;;1.42;;
25319;SDS011;13256;49.012;8.610;2022-12-31T17:56:55;1.98;;;1.20;;
25319;SDS011;13256;49.012;8.610;2022-12-31T17:59:24;2.72;;;1.50;;
25319;SDS011;13256;49.012;8.610;2022-12-31T18:01:56;6.30;;;3.75;;
25319;SDS011;13256;49.012;8.610;2022-12-31T18:04:28;10.85;;;6.78;;
25319;SDS011;13256;49.012;8.610;2022-12-31T18:06:55;22.77;;;12.70;;
25319;SDS011;13256;49.012;8.610;2022-12-31T18:09:24;20.63;;;12.50;;
25319;SDS011;13256;49.012;8.610;2022-12-31T18:14:31;31.90;;;17.05;;
25319;SDS011;13256;49.012;8.610;2022-12-31T18:16:59;32.58;;;18.20;;
25319;SDS011;13256;49.012;8.610;2022-12-31T18:19:27;30.42;;;15.57;;
25319;SDS011;13256;49.012;8.610;2022-12-31T18:22:18;26.25;;;13.50;;
25319;SDS011;13256;49.012;8.610;2022-12-31T18:27:51;35.03;;;16.00;;
25319;SDS011;13256;49.012;8.610;2022-12-31T18:30:21;35.58;;;14.38;;
25319;SDS011;13256;49.012;8.610;2022-12-31T18:32:55;34.75;;;15.60;;
25319;SDS011;13256;49.012;8.610;2022-12-31T18:35:32;28.35;;;12.98;;
25319;SDS011;13256;49.012;8.610;2022-12-31T18:38:22;26.10;;;11.73;;
25319;SDS011;13256;49.012;8.610;2022-12-31T18:40:56;22.58;;;11.52;;
25319;SDS011;13256;49.012;8.610;2022-12-31T18:46:08;17.52;;;9.13;;
25319;SDS011;13256;49.012;8.610;2022-12-31T18:48:49;15.18;;;6.78;;
25319;SDS011;13256;49.012;8.610;2022-12-31T18:51:19;15.40;;;7.38;;
25319;SDS011;13256;49.012;8.610;2022-12-31T18:53:59;11.68;;;6.45;;
25319;SDS011;13256;49.012;8.610;2022-12-31T18:56:32;10.65;;;5.40;;
25319;SDS011;13256;49.012;8.610;2022-12-31T18:58:59;11.25;;;6.03;;
25319;SDS011;13256;49.012;8.610;2022-12-31T19:01:31;14.35;;;6.35;;
25319;SDS011;13256;49.012;8.610;2022-12-31T19:04:05;9.30;;;5.78;;
25319;SDS011;13256;49.012;8.610;2022-12-31T19:06:53;14.27;;;7.55;;
25319;SDS011;13256;49.012;8.610;2022-12-31T19:09:22;16.55;;;7.78;;
25319;SDS011;13256;49.012;8.610;2022-12-31T19:12:16;10.65;;;6.15;;
25319;SDS011;13256;49.012;8.610;2022-12-31T19:14:46;13.65;;;7.10;;
25319;SDS011;13256;49.012;8.610;2022-12-31T19:17:15;13.65;;;6.82;;
25319;SDS011;13256;49.012;8.610;2022-12-31T19:19:42;9.43;;;5.78;;
25319;SDS011;13256;49.012;8.610;2022-12-31T19:22:13;13.63;;;7.60;;
25319;SDS011;13256;49.012;8.610;2022-12-31T19:24:44;15.70;;;8.13;;
25319;SDS011;13256;49.012;8.610;2022-12-31T19:27:11;18.88;;;9.25;;
25319;SDS011;13256;49.012;8.610;2022-12-31T19:29:45;19.00;;;8.70;;
25319;SDS011;13256;49.012;8.610;2022-12-31T19:32:16;19.67;;;9.43;;
25319;SDS011;13256;49.012;8.610;2022-12-31T19:34:44;20.05;;;9.55;;
25319;SDS011;13256;49.012;8.610;2022-12-31T19:37:15;17.83;;;8.90;;
25319;SDS011;13256;49.012;8.610;2022-12-31T19:39:41;18.30;;;9.63;;
25319;SDS011;13256;49.012;8.610;2022-12-31T19:42:12;23.65;;;10.65;;
25319;SDS011;13256;49.012;8.610;2022-12-31T19:44:44;18.88;;;9.60;;
25319;SDS011;13256;49.012;8.610;2022-12-31T19:47:11;23.90;;;10.77;;
25319;SDS011;13256;49.012;8.610;2022-12-31T19:49:40;19.33;;;9.68;;
25319;SDS011;13256;49.012;8.610;2022-12-31T19:52:09;15.32;;;8.57;;
25319;SDS011;13256;49.012;8.610;2022-12-31T19:54:37;20.05;;;10.07;;
25319;SDS011;13256;49.012;8.610;2022-12-31T19:57:04;14.63;;;8.43;;
25319;SDS011;13256;49.012;8.610;2022-12-31T19:59:33;18.23;;;11.07;;
25319;SDS011;13256;49.012;8.610;2022-12-31T20:02:02;32.75;;;16.48;;
25319;SDS011;13256;49.012;8.610;2022-12-31T20:04:29;30.63;;;15.63;;
25319;SDS011;13256;49.012;8.610;2022-12-31T20:06:59;29.50;;;14.55;;
25319;SDS011;13256;49.012;8.610;2022-12-31T20:09:29;33.03;;;14.65;;
25319;SDS011;13256;49.012;8.610;2022-12-31T20:11:58;33.97;;;14.77;;
25319;SDS011;13256;49.012;8.610;2022-12-31T20:14:25;48.15;;;21.58;;
25319;SDS011;13256;49.012;8.610;2022-12-31T20:16:59;54.95;;;23.38;;
25319;SDS011;13256;49.012;8.610;2022-12-31T20:19:27;46.22;;;20.20;;
25319;SDS011;13256;49.012;8.610;2022-12-31T20:21:56;34.53;;;17.75;;
25319;SDS011;13256;49.012;8.610;2022-12-31T20:24:24;38.40;;;18.70;;
25319;SDS011;13256;49.012;8.610;2022-12-31T20:26:51;32.67;;;15.75;;
25319;SDS011;13256;49.012;8.610;2022-12-31T20:29:23;31.20;;;13.48;;
25319;SDS011;13256;49.012;8.610;2022-12-31T20:31:52;32.67;;;13.80;;
25319;SDS011;13256;49.012;8.610;2022-12-31T20:34:23;50.30;;;18.33;;
25319;SDS011;13256;49.012;8.610;2022-12-31T20:36:50;51.88;;;19.85;;
25319;SDS011;13256;49.012;8.610;2022-12-31T20:39:24;54.95;;;19.65;;
25319;SDS011;13256;49.012;8.610;2022-12-31T20:41:52;69.10;;;25.95;;
25319;SDS011;13256;49.012;8.610;2022-12-31T20:44:20;78.47;;;29.77;;
25319;SDS011;13256;49.012;8.610;2022-12-31T20:46:47;79.50;;;29.80;;
25319;SDS011;13256;49.012;8.610;2022-12-31T20:49:18;121.50;;;41.65;;
25319;SDS011;13256;49.012;8.610;2022-12-31T20:52:12;115.93;;;45.38;;
25319;SDS011;13256;49.012;8.610;2022-12-31T20:54:39;102.93;;;40.70;;
25319;SDS011;13256;49.012;8.610;2022-12-31T20:59:49;45.55;;;20.92;;
25319;SDS011;13256;49.012;8.610;2022-12-31T21:02:26;41.10;;;20.40;;
25319;SDS011;13256;49.012;8.610;2022-12-31T21:05:16;25.45;;;13.70;;
25319;SDS011;13256;49.012;8.610;2022-12-31T21:07:48;21.88;;;12.10;;
25319;SDS011;13256;49.012;8.610;2022-12-31T21:10:18;21.52;;;11.52;;
25319;SDS011;13256;49.012;8.610;2022-12-31T21:12:46;23.35;;;12.27;;
25319;SDS011;13256;49.012;8.610;2022-12-31T21:15:46;274.77;;;136.88;;
25319;SDS011;13256;49.012;8.610;2022-12-31T21:18:15;266.38;;;138.48;;
25319;SDS011;13256;49.012;8.610;2022-12-31T21:20:46;219.60;;;105.82;;
25319;SDS011;13256;49.012;8.610;2022-12-31T21:23:16;141.07;;;69.70;;
25319;SDS011;13256;49.012;8.610;2022-12-31T21:25:47;29.30;;;17.42;;
25319;SDS011;13256;49.012;8.610;2022-12-31T21:28:16;76.82;;;41.20;;
25319;SDS011;13256;49.012;8.610;2022-12-31T21:30:55;51.95;;;25.17;;
25319;SDS011;13256;49.012;8.610;2022-12-31T21:33:23;32.67;;;17.33;;
25319;SDS011;13256;49.012;8.610;2022-12-31T21:38:50;31.52;;;15.88;;
25319;SDS011;13256;49.012;8.610;2022-12-31T21:44:24;23.08;;;11.45;;
25319;SDS011;13256;49.012;8.610;2022-12-31T21:46:58;20.92;;;11.55;;
25319;SDS011;13256;49.012;8.610;2022-12-31T21:50:18;15.93;;;9.13;;
25319;SDS011;13256;49.012;8.610;2022-12-31T21:52:50;16.35;;;7.70;;
25319;SDS011;13256;49.012;8.610;2022-12-31T21:55:23;8.88;;;5.47;;
25319;SDS011;13256;49.012;8.610;2022-12-31T22:01:18;10.27;;;4.53;;
25319;SDS011;13256;49.012;8.610;2022-12-31T22:04:06;3.80;;;2.63;;
25319;SDS011;13256;49.012;8.610;2022-12-31T22:06:50;6.95;;;3.33;;
25319;SDS011;13256;49.012;8.610;2022-12-31T22:09:22;9.02;;;3.78;;
25319;SDS011;13256;49.012;8.610;2022-12-31T22:11:49;5.07;;;3.50;;
25319;SDS011;13256;49.012;8.610;2022-12-31T22:14:16;8.20;;;3.75;;
25319;SDS011;13256;49.012;8.610;2022-12-31T22:16:47;6.28;;;3.92;;
25319;SDS011;13256;49.012;8.610;2022-12-31T22:19:15;8.57;;;4.22;;
25319;SDS011;13256;49.012;8.610;2022-12-31T22:21:47;10.30;;;6.60;;
25319;SDS011;13256;49.012;8.610;2022-12-31T22:24:17;12.43;;;7.15;;
25319;SDS011;13256;49.012;8.610;2022-12-31T22:26:44;10.75;;;5.93;;
25319;SDS011;13256;49.012;8.610;2022-12-31T22:29:13;10.05;;;5.10;;
25319;SDS011;13256;49.012;8.610;2022-12-31T22:31:43;10.23;;;5.70;;
25319;SDS011;13256;49.012;8.610;2022-12-31T22:34:09;11.55;;;5.85;;